createdAt,value
2022-12-08T00:01:32.690Z,68.00
2022-12-08T00:04:03.844Z,72.97
2022-12-08T00:06:48.206Z,72.95
2022-12-08T00:09:26.907Z,65.70
2022-12-08T00:12:00.866Z,66.03
2022-12-08T00:14:32.915Z,63.88
2022-12-08T00:17:04.016Z,73.82
2022-12-08T00:19:35.016Z,70.60
2022-12-08T00:22:05.894Z,65.10
2022-12-08T00:24:41.353Z,66.78
2022-12-08T00:27:13.929Z,67.30
2022-12-08T00:29:46.378Z,67.32
2022-12-08T00:32:16.673Z,59.88
2022-12-08T00:34:46.889Z,65.88
2022-12-08T00:37:17.443Z,63.88
2022-12-08T00:39:50.204Z,60.40
2022-12-08T00:42:20.301Z,67.38
2022-12-08T00:44:50.367Z,69.40
2022-12-08T00:47:24.820Z,72.22
2022-12-08T00:49:55.522Z,64.25
2022-12-08T00:52:25.556Z,63.92
2022-12-08T00:54:58.217Z,63.13
2022-12-08T00:57:28.637Z,70.90
2022-12-08T00:59:58.986Z,65.43
2022-12-08T01:02:29.154Z,70.25
2022-12-08T01:04:59.357Z,76.47
2022-12-08T01:07:29.744Z,76.28
2022-12-08T01:10:03.545Z,76.35
2022-12-08T01:12:33.982Z,73.55
2022-12-08T01:15:04.278Z,72.55
2022-12-08T01:17:34.427Z,69.60
2022-12-08T01:20:05.265Z,69.85
2022-12-08T01:22:38.073Z,72.85
2022-12-08T01:25:12.153Z,69.55
2022-12-08T01:27:43.018Z,66.07
2022-12-08T01:30:15.079Z,68.32
2022-12-08T01:32:45.264Z,75.55
2022-12-08T01:35:15.624Z,73.57
2022-12-08T01:37:45.694Z,88.60
2022-12-08T01:40:18.716Z,75.25
2022-12-08T01:42:48.963Z,86.97
2022-12-08T01:45:26.022Z,82.55
2022-12-08T01:48:00.774Z,78.50
2022-12-08T01:50:31.820Z,72.72
2022-12-08T01:53:05.128Z,74.95
2022-12-08T01:55:44.383Z,70.18
2022-12-08T01:58:20.025Z,69.95
2022-12-08T02:00:51.827Z,79.13
2022-12-08T02:03:29.206Z,76.82
2022-12-08T02:06:00.337Z,86.80
2022-12-08T02:08:31.541Z,72.13
2022-12-08T02:11:04.755Z,85.80
2022-12-08T02:13:35.974Z,77.68
2022-12-08T02:16:12.819Z,77.88
2022-12-08T02:19:29.115Z,75.80
2022-12-08T02:21:55.843Z,83.97
2022-12-08T02:24:36.432Z,75.20
2022-12-08T02:27:31.242Z,73.20
2022-12-08T02:30:28.335Z,64.53
2022-12-08T02:33:26.304Z,72.15
2022-12-08T02:36:03.116Z,90.25
2022-12-08T02:38:43.511Z,96.18
2022-12-08T02:41:24.063Z,100.63
2022-12-08T02:44:00.425Z,94.30
2022-12-08T02:46:36.163Z,91.60
2022-12-08T02:49:07.586Z,99.55
2022-12-08T02:51:42.093Z,78.13
2022-12-08T02:54:12.953Z,78.70
2022-12-08T02:57:09.860Z,72.32
2022-12-08T02:59:54.551Z,68.40
2022-12-08T03:02:48.195Z,69.07
2022-12-08T03:05:32.289Z,68.78
2022-12-08T03:10:43.866Z,73.32
2022-12-08T03:13:19.470Z,88.88
2022-12-08T03:15:54.233Z,66.68
2022-12-08T03:18:30.059Z,66.05
2022-12-08T03:21:00.836Z,69.90
2022-12-08T03:23:36.057Z,79.53
2022-12-08T03:26:12.540Z,73.55
2022-12-08T03:28:43.535Z,74.00
2022-12-08T03:31:16.328Z,67.43
2022-12-08T03:33:51.206Z,72.18
2022-12-08T03:36:22.768Z,69.03
2022-12-08T03:38:57.405Z,63.85
2022-12-08T03:41:27.770Z,63.70
2022-12-08T03:44:00.374Z,72.50
2022-12-08T03:46:32.275Z,72.80
2022-12-08T03:49:02.624Z,79.65
2022-12-08T03:51:33.587Z,62.65
2022-12-08T03:54:07.177Z,63.75
2022-12-08T03:56:39.299Z,70.57
2022-12-08T03:59:11.288Z,67.20
2022-12-08T04:01:41.352Z,71.13
2022-12-08T04:04:11.995Z,70.65
2022-12-08T04:06:43.393Z,66.63
2022-12-08T04:09:16.823Z,73.65
2022-12-08T04:11:47.261Z,72.18
2022-12-08T04:14:17.882Z,69.32
2022-12-08T04:16:48.395Z,66.63
2022-12-08T04:19:20.007Z,64.03
2022-12-08T04:21:50.799Z,69.28
2022-12-08T04:24:24.695Z,68.30
2022-12-08T04:29:24.885Z,68.13
2022-12-08T04:31:55.220Z,70.28
2022-12-08T04:34:25.522Z,69.80
2022-12-08T04:36:55.747Z,84.72
2022-12-08T04:39:28.920Z,90.28
2022-12-08T04:41:59.214Z,92.72
2022-12-08T04:44:29.453Z,90.50
2022-12-08T04:46:59.671Z,84.40
2022-12-08T04:49:30.175Z,93.43
2022-12-08T04:52:00.328Z,96.40
2022-12-08T04:54:33.079Z,97.38
2022-12-08T04:57:03.600Z,100.88
2022-12-08T04:59:33.898Z,87.03
2022-12-08T05:02:04.633Z,91.35
2022-12-08T05:04:36.053Z,88.65
2022-12-08T05:07:06.216Z,83.28
2022-12-08T05:09:40.061Z,92.32
2022-12-08T05:14:40.612Z,91.47
2022-12-08T05:17:10.871Z,82.85
2022-12-08T05:19:41.902Z,89.47
2022-12-08T05:22:13.352Z,91.82
2022-12-08T05:24:47.853Z,103.45
2022-12-08T05:27:18.946Z,86.15
2022-12-08T05:29:50.847Z,97.43
2022-12-08T05:32:21.182Z,92.75
2022-12-08T05:34:51.591Z,95.57
2022-12-08T05:37:22.156Z,91.65
2022-12-08T05:39:55.470Z,108.65
2022-12-08T05:42:25.844Z,101.25
2022-12-08T05:45:07.414Z,95.18
2022-12-08T05:47:37.985Z,100.18
2022-12-08T05:50:10.647Z,90.78
2022-12-08T05:52:42.071Z,99.55
2022-12-08T05:55:15.314Z,96.72
2022-12-08T05:57:45.879Z,103.40
2022-12-08T06:00:17.505Z,87.88
2022-12-08T06:02:47.928Z,93.38
2022-12-08T06:05:18.718Z,90.88
2022-12-08T06:07:50.078Z,84.30
2022-12-08T06:10:23.004Z,94.97
2022-12-08T06:12:53.513Z,87.95
2022-12-08T06:15:24.217Z,88.68
2022-12-08T06:17:54.573Z,78.07
2022-12-08T06:20:25.341Z,84.45
2022-12-08T06:22:55.971Z,86.70
2022-12-08T06:25:29.306Z,82.35
2022-12-08T06:28:00.826Z,83.60
2022-12-08T06:30:32.454Z,95.47
2022-12-08T06:33:05.364Z,83.40
2022-12-08T06:35:35.914Z,83.53
2022-12-08T06:38:06.200Z,74.22
2022-12-08T06:40:42.657Z,77.00
2022-12-08T06:43:14.519Z,73.50
2022-12-08T06:45:45.987Z,77.43
2022-12-08T06:48:16.676Z,63.60
2022-12-08T06:50:47.076Z,57.60
2022-12-08T06:53:18.434Z,59.85
2022-12-08T06:55:59.978Z,60.47
2022-12-08T06:58:30.937Z,54.65
2022-12-08T07:01:02.006Z,58.55
2022-12-08T07:03:32.488Z,53.95
2022-12-08T07:06:04.299Z,60.50
2022-12-08T07:08:35.081Z,51.83
2022-12-08T07:11:19.657Z,37.38
2022-12-08T07:13:51.650Z,38.83
2022-12-08T07:16:22.482Z,31.10
2022-12-08T07:18:53.322Z,33.03
2022-12-08T07:21:23.816Z,36.97
2022-12-08T07:23:57.833Z,40.13
2022-12-08T07:26:31.492Z,28.10
2022-12-08T07:29:04.043Z,44.90
2022-12-08T07:31:34.388Z,28.80
2022-12-08T07:34:04.990Z,22.92
2022-12-08T07:36:36.503Z,23.63
2022-12-08T07:39:07.399Z,28.67
2022-12-08T07:41:40.404Z,26.98
2022-12-08T07:44:11.019Z,23.20
2022-12-08T07:46:41.445Z,29.58
2022-12-08T07:49:12.020Z,29.45
2022-12-08T07:51:42.511Z,29.63
2022-12-08T07:54:15.927Z,27.27
2022-12-08T07:56:49.303Z,32.00
2022-12-08T07:59:19.694Z,30.17
2022-12-08T08:02:11.737Z,28.17
2022-12-08T08:04:41.762Z,27.33
2022-12-08T08:07:12.187Z,31.48
2022-12-08T08:09:42.681Z,30.67
2022-12-08T08:12:31.324Z,31.50
2022-12-08T08:15:02.774Z,33.47
2022-12-08T08:17:33.712Z,30.40
2022-12-08T08:20:04.597Z,27.63
2022-12-08T08:22:35.778Z,30.35
2022-12-08T08:25:06.352Z,29.50
2022-12-08T08:27:39.469Z,26.20
2022-12-08T08:30:16.568Z,31.33
2022-12-08T08:32:50.867Z,35.00
2022-12-08T08:35:21.386Z,30.75
2022-12-08T08:37:51.738Z,27.38
2022-12-08T08:40:21.942Z,28.45
2022-12-08T08:42:54.803Z,27.17
2022-12-08T08:45:26.188Z,35.92
2022-12-08T08:47:56.670Z,32.38
2022-12-08T08:50:32.857Z,27.10
2022-12-08T08:53:06.290Z,31.25
2022-12-08T08:55:36.857Z,32.67
2022-12-08T08:58:09.932Z,34.30
2022-12-08T09:00:46.209Z,31.27
2022-12-08T09:03:16.783Z,39.28
2022-12-08T09:05:47.085Z,32.40
2022-12-08T09:08:17.866Z,32.33
2022-12-08T09:10:48.327Z,31.08
2022-12-08T09:13:22.525Z,37.20
2022-12-08T09:15:55.139Z,33.47
2022-12-08T09:18:25.542Z,29.50
2022-12-08T09:20:56.470Z,36.67
2022-12-08T09:23:32.117Z,30.48
2022-12-08T09:26:07.250Z,28.25
2022-12-08T09:28:46.812Z,28.10
2022-12-08T09:31:17.981Z,32.08
2022-12-08T09:33:49.032Z,33.17
2022-12-08T09:36:19.693Z,32.05
2022-12-08T09:38:51.651Z,31.08
2022-12-08T09:41:36.802Z,30.30
2022-12-08T09:44:45.425Z,30.88
2022-12-08T09:47:24.236Z,28.05
2022-12-08T09:50:03.559Z,27.20
2022-12-08T09:52:41.161Z,26.60
2022-12-08T09:55:23.493Z,35.08
2022-12-08T09:58:02.658Z,28.98
2022-12-08T10:00:36.760Z,29.73
2022-12-08T10:03:07.098Z,32.38
2022-12-08T10:05:44.861Z,30.60
2022-12-08T10:08:23.710Z,29.20
2022-12-08T10:10:59.989Z,36.75
2022-12-08T10:13:39.575Z,34.67
2022-12-08T10:16:29.754Z,31.85
2022-12-08T10:19:05.985Z,29.40
2022-12-08T10:21:36.889Z,32.95
2022-12-08T10:24:14.775Z,33.58
2022-12-08T10:26:45.215Z,30.92
2022-12-08T10:29:16.874Z,28.17
2022-12-08T10:31:50.091Z,35.25
2022-12-08T10:34:23.728Z,30.85
2022-12-08T10:36:56.284Z,36.15
2022-12-08T10:39:34.594Z,36.72
2022-12-08T10:42:10.809Z,34.05
2022-12-08T10:44:57.863Z,32.83
2022-12-08T10:47:33.331Z,39.90
2022-12-08T10:50:16.006Z,32.22
2022-12-08T10:52:46.539Z,35.30
2022-12-08T10:55:22.237Z,33.03
2022-12-08T10:57:53.747Z,30.38
2022-12-08T11:00:27.915Z,30.20
2022-12-08T11:03:03.924Z,34.00
2022-12-08T11:05:37.211Z,31.40
2022-12-08T11:08:09.007Z,27.67
2022-12-08T11:10:46.635Z,32.40
2022-12-08T11:13:26.424Z,28.02
2022-12-08T11:15:59.338Z,43.15
2022-12-08T11:18:42.386Z,35.67
2022-12-08T11:21:16.375Z,30.38
2022-12-08T11:23:50.928Z,32.20
2022-12-08T11:26:30.364Z,34.55
2022-12-08T11:29:00.825Z,28.00
2022-12-08T11:31:35.016Z,30.27
2022-12-08T11:34:10.074Z,25.73
2022-12-08T11:36:42.771Z,28.88
2022-12-08T11:39:16.265Z,29.48
2022-12-08T11:41:49.660Z,29.77
2022-12-08T11:44:30.636Z,28.85
2022-12-08T11:47:04.606Z,28.85
2022-12-08T11:49:40.705Z,31.25
2022-12-08T11:52:24.624Z,27.25
2022-12-08T11:55:01.397Z,33.83
2022-12-08T11:57:33.479Z,25.17
2022-12-08T12:00:07.832Z,31.27
2022-12-08T12:02:49.131Z,26.42
2022-12-08T12:06:03.385Z,34.92
2022-12-08T12:08:43.411Z,27.50
2022-12-08T12:11:41.946Z,29.00
2022-12-08T12:14:29.913Z,26.80
2022-12-08T12:17:08.789Z,27.92
2022-12-08T12:19:42.833Z,25.50
2022-12-08T12:22:19.847Z,25.50
2022-12-08T12:24:53.345Z,33.28
2022-12-08T12:27:28.766Z,25.23
2022-12-08T12:30:02.360Z,29.23
2022-12-08T12:32:48.923Z,26.42
2022-12-08T12:35:27.317Z,28.27
2022-12-08T12:38:05.669Z,29.00
2022-12-08T12:40:44.990Z,30.40
2022-12-08T12:43:32.530Z,28.98
2022-12-08T12:46:32.802Z,34.08
2022-12-08T12:49:32.719Z,44.28
2022-12-08T12:52:03.096Z,60.15
2022-12-08T12:54:36.050Z,37.08
2022-12-08T12:57:24.991Z,31.40
2022-12-08T13:00:11.470Z,29.90
2022-12-08T13:02:49.974Z,32.70
2022-12-08T13:05:25.033Z,24.75
2022-12-08T13:07:59.250Z,28.70
2022-12-08T13:10:34.533Z,53.92
2022-12-08T13:13:10.748Z,35.75
2022-12-08T13:15:43.736Z,42.60
2022-12-08T13:18:22.898Z,28.93
2022-12-08T13:20:56.745Z,26.80
2022-12-08T13:26:27.089Z,41.42
2022-12-08T13:29:25.551Z,34.00
2022-12-08T13:31:57.286Z,30.20
2022-12-08T13:34:37.819Z,29.58
2022-12-08T13:37:28.579Z,31.88
2022-12-08T13:40:04.320Z,29.63
2022-12-08T13:42:47.299Z,27.67
2022-12-08T13:48:35.115Z,30.88
2022-12-08T13:53:34.173Z,38.03
2022-12-08T13:57:10.790Z,30.20
2022-12-08T13:59:49.537Z,36.00
2022-12-08T14:02:31.300Z,28.48
2022-12-08T14:05:18.238Z,31.52
2022-12-08T14:07:51.928Z,28.15
2022-12-08T14:10:27.859Z,35.17
2022-12-08T14:13:02.877Z,27.70
2022-12-08T14:15:38.739Z,24.30
2022-12-08T14:18:26.618Z,29.25
2022-12-08T14:21:21.634Z,28.15
2022-12-08T14:23:52.407Z,29.95
2022-12-08T14:26:23.525Z,33.60
2022-12-08T14:28:58.217Z,31.98
2022-12-08T14:31:32.404Z,30.17
2022-12-08T14:34:02.912Z,30.45
2022-12-08T14:36:34.335Z,30.40
2022-12-08T14:39:05.918Z,45.85
2022-12-08T14:41:36.794Z,41.70
2022-12-08T14:44:27.823Z,38.30
2022-12-08T14:47:11.744Z,32.03
2022-12-08T14:49:44.768Z,28.10
2022-12-08T14:52:17.804Z,32.23
2022-12-08T14:54:48.858Z,36.67
2022-12-08T14:57:22.111Z,33.00
2022-12-08T14:59:53.658Z,32.30
2022-12-08T15:02:35.516Z,42.35
2022-12-08T15:05:13.748Z,33.88
2022-12-08T15:07:50.402Z,40.22
2022-12-08T15:10:29.047Z,40.10
2022-12-08T15:13:09.894Z,33.75
2022-12-08T15:15:53.088Z,31.27
2022-12-08T15:18:35.257Z,33.50
2022-12-08T15:21:10.004Z,41.72
2022-12-08T15:23:45.897Z,38.08
2022-12-08T15:26:23.489Z,46.40
2022-12-08T15:28:53.992Z,47.00
2022-12-08T15:31:25.239Z,43.05
2022-12-08T15:33:58.490Z,42.13
2022-12-08T15:36:29.227Z,37.88
2022-12-08T15:38:59.614Z,38.53
2022-12-08T15:41:30.076Z,42.25
2022-12-08T15:44:00.369Z,37.47
2022-12-08T15:46:30.950Z,34.38
2022-12-08T15:49:04.300Z,44.35
2022-12-08T15:51:37.356Z,33.72
2022-12-08T15:54:07.959Z,34.80
2022-12-08T15:56:50.606Z,38.17
2022-12-08T15:59:29.627Z,38.35
2022-12-08T16:02:00.002Z,37.63
2022-12-08T16:07:28.335Z,39.63
2022-12-08T16:10:00.320Z,39.70
2022-12-08T16:15:59.209Z,40.92
2022-12-08T16:18:30.510Z,40.88
2022-12-08T16:21:22.422Z,40.97
2022-12-08T16:23:58.034Z,56.40
2022-12-08T16:27:28.477Z,106.63
2022-12-08T16:29:23.675Z,191.55
2022-12-08T16:31:54.170Z,111.95
2022-12-08T16:34:24.672Z,73.93
2022-12-08T16:36:57.290Z,53.20
2022-12-08T16:39:27.660Z,53.67
2022-12-08T16:42:10.079Z,50.47
2022-12-08T16:44:44.050Z,43.40
2022-12-08T16:47:15.194Z,39.58
2022-12-08T16:49:48.180Z,44.60
2022-12-08T16:52:20.921Z,39.13
2022-12-08T16:54:50.927Z,40.92
2022-12-08T16:57:21.393Z,38.88
2022-12-08T16:59:51.713Z,43.72
2022-12-08T17:02:24.009Z,46.92
2022-12-08T17:04:54.451Z,58.28
2022-12-08T17:07:28.858Z,56.95
2022-12-08T17:09:59.111Z,54.03
2022-12-08T17:12:29.305Z,43.17
2022-12-08T17:14:59.379Z,39.20
2022-12-08T17:17:29.690Z,43.05
2022-12-08T17:20:00.017Z,41.83
2022-12-08T17:22:33.165Z,42.20
2022-12-08T17:25:04.442Z,49.47
2022-12-08T17:27:35.407Z,56.10
2022-12-08T17:30:06.008Z,45.55
2022-12-08T17:32:36.480Z,47.58
2022-12-08T17:35:07.022Z,49.58
2022-12-08T17:37:44.215Z,48.72
2022-12-08T17:40:15.124Z,53.22
2022-12-08T17:42:47.309Z,55.83
2022-12-08T17:45:18.124Z,45.67
2022-12-08T17:47:48.452Z,62.15
2022-12-08T17:50:18.703Z,54.60
2022-12-08T17:52:53.733Z,66.95
2022-12-08T17:55:24.186Z,72.50
2022-12-08T17:57:54.467Z,70.47
2022-12-08T18:00:26.400Z,72.70
2022-12-08T18:02:56.835Z,69.82
2022-12-08T18:05:27.415Z,68.82
2022-12-08T18:08:02.130Z,63.92
2022-12-08T18:10:32.658Z,62.78
2022-12-08T18:13:03.071Z,61.88
2022-12-08T18:15:38.985Z,57.58
2022-12-08T18:18:09.975Z,61.90
2022-12-08T18:20:42.585Z,58.00
2022-12-08T18:23:15.977Z,62.33
2022-12-08T18:25:47.450Z,66.32
2022-12-08T18:28:20.079Z,74.97
2022-12-08T18:30:51.300Z,83.78
2022-12-08T18:33:24.405Z,67.22
2022-12-08T18:35:54.819Z,67.72
2022-12-08T18:38:27.819Z,62.80
2022-12-08T18:40:57.894Z,56.43
2022-12-08T18:43:27.954Z,56.17
2022-12-08T18:46:04.736Z,53.95
2022-12-08T18:48:34.811Z,57.60
2022-12-08T18:51:05.982Z,67.75
2022-12-08T18:53:39.826Z,60.25
2022-12-08T18:58:40.680Z,57.33
2022-12-08T19:01:17.369Z,54.38
2022-12-08T19:04:05.028Z,57.78
2022-12-08T19:06:41.317Z,60.35
2022-12-08T19:09:16.144Z,62.33
2022-12-08T19:11:47.169Z,61.13
2022-12-08T19:14:21.265Z,62.15
2022-12-08T19:16:54.819Z,65.95
2022-12-08T19:19:25.045Z,57.78
2022-12-08T19:21:55.498Z,71.28
2022-12-08T19:24:29.093Z,64.80
2022-12-08T19:26:59.300Z,62.60
2022-12-08T19:29:29.718Z,71.65
2022-12-08T19:32:00.675Z,58.28
2022-12-08T19:34:31.088Z,59.22
2022-12-08T19:37:01.597Z,58.20
2022-12-08T19:39:46.759Z,60.38
2022-12-08T19:42:32.099Z,59.10
2022-12-08T19:45:07.707Z,68.82
2022-12-08T19:47:38.187Z,70.43
2022-12-08T19:50:25.388Z,67.05
2022-12-08T19:53:05.062Z,69.47
2022-12-08T19:55:39.661Z,67.32
2022-12-08T19:58:10.963Z,65.00
2022-12-08T20:00:54.217Z,68.82
2022-12-08T20:03:28.755Z,70.90
2022-12-08T20:05:59.700Z,76.13
2022-12-08T20:08:32.781Z,70.18
2022-12-08T20:11:17.377Z,68.57
2022-12-08T20:13:53.668Z,66.50
2022-12-08T20:16:24.300Z,64.88
2022-12-08T20:18:56.437Z,60.30
2022-12-08T20:21:41.339Z,65.45
2022-12-08T20:24:14.288Z,66.55
2022-12-08T20:26:48.247Z,68.13
2022-12-08T20:29:21.680Z,70.70
2022-12-08T20:31:51.893Z,66.60
2022-12-08T20:34:22.965Z,72.05
2022-12-08T20:36:53.922Z,67.63
2022-12-08T20:39:25.642Z,75.03
2022-12-08T20:42:00.873Z,73.10
2022-12-08T20:44:31.729Z,76.43
2022-12-08T20:47:15.251Z,75.60
2022-12-08T20:50:08.738Z,85.28
2022-12-08T20:52:41.826Z,95.20
2022-12-08T20:55:32.353Z,87.13
2022-12-08T20:58:12.968Z,66.93
2022-12-08T21:01:18.254Z,69.90
2022-12-08T21:03:52.882Z,69.40
2022-12-08T21:06:27.809Z,72.05
2022-12-08T21:08:58.188Z,73.10
2022-12-08T21:11:31.736Z,79.35
2022-12-08T21:14:04.819Z,70.80
2022-12-08T21:16:34.924Z,75.10
2022-12-08T21:19:10.275Z,64.25
2022-12-08T21:21:41.069Z,68.07
2022-12-08T21:24:34.389Z,68.25
2022-12-08T21:27:16.748Z,59.45
2022-12-08T21:29:53.831Z,57.58
2022-12-08T21:32:29.965Z,60.75
2022-12-08T21:35:00.948Z,63.25
2022-12-08T21:37:31.103Z,61.75
2022-12-08T21:40:01.386Z,65.03
2022-12-08T21:42:43.962Z,73.40
2022-12-08T21:45:22.662Z,81.03
2022-12-08T21:48:12.270Z,60.17
2022-12-08T21:55:21.680Z,63.30
2022-12-08T21:58:05.906Z,63.05
2022-12-08T22:00:39.643Z,67.20
2022-12-08T22:05:40.599Z,71.78
2022-12-08T22:08:11.223Z,69.93
2022-12-08T22:10:41.662Z,64.72
2022-12-08T22:13:12.284Z,63.95
2022-12-08T22:16:05.852Z,63.75
2022-12-08T22:18:37.450Z,64.35
2022-12-08T22:21:17.200Z,66.30
2022-12-08T22:23:58.713Z,66.28
2022-12-08T22:26:30.192Z,70.32
2022-12-08T22:29:08.468Z,58.33
2022-12-08T22:31:41.669Z,61.03
2022-12-08T22:34:12.469Z,64.50
2022-12-08T22:36:42.654Z,66.40
2022-12-08T22:39:21.444Z,59.92
2022-12-08T22:41:57.742Z,65.03
2022-12-08T22:44:29.337Z,67.35
2022-12-08T22:47:02.953Z,60.15
2022-12-08T22:53:57.016Z,56.35
2022-12-08T23:00:37.978Z,61.05
2022-12-08T23:03:17.791Z,61.80
2022-12-08T23:09:44.594Z,63.38
2022-12-08T23:12:14.660Z,69.30
2022-12-08T23:14:44.663Z,69.18
2022-12-08T23:17:14.770Z,68.13
2022-12-08T23:19:47.929Z,84.32
2022-12-08T23:22:18.159Z,80.13
2022-12-08T23:24:48.203Z,83.60
2022-12-08T23:27:18.286Z,87.85
2022-12-08T23:29:48.373Z,91.60
2022-12-08T23:32:18.620Z,92.10
2022-12-08T23:34:51.437Z,90.53
2022-12-08T23:37:21.870Z,86.20
2022-12-08T23:42:40.624Z,80.50
2022-12-08T23:45:12.536Z,79.78
2022-12-08T23:47:42.761Z,94.65
2022-12-08T23:50:15.550Z,89.43
2022-12-08T23:52:45.887Z,90.25
2022-12-08T23:55:16.149Z,83.10
2022-12-08T23:57:46.880Z,75.75
